Cape Texel — V7RC4 — position and weather

sailwx.info

Track history (hours):
 
Tides and Currents Weather Stations Pressure Air Temp Water Temp Dewpoint Dewpoint Depression Visibility Wind Speed Wind Dir Waves Ship Positions

Cape Texel

Last reported at 2015-Jul-02 13:33 UTC. Time now 2015-Jul-03 12:25 UTC.
Position N 25°52' W 079°28'.

Length 228 m; draft 12 m.

Type: Ship (hazmat cat A). MMSI: 538090383.

Date/timePositionNaut miles runAvg speedWind from/ knotsBaromVisibWave heightAir tempDewpointWater temp
2015-Jul-02 13:33N 25°52' W 079°28'1010.4
2015-Jul-02 12:33N 26°02' W 079°25'  
2015-Jun-24 03:11N 38°45' W 030°48'813.0
2015-Jun-24 02:33N 38°48' W 030°38'1312.6
2015-Jun-24 01:34N 38°52' W 030°23'1313.2
2015-Jun-24 00:33N 38°55' W 030°06'1312.9
2015-Jun-23 23:34N 38°59' W 029°51'1313.2
2015-Jun-23 22:34N 39°04' W 029°35'1312.9
2015-Jun-23 21:33N 39°08' W 029°19'1313.0
2015-Jun-23 20:34N 39°12' W 029°03'1313.1
2015-Jun-23 19:34N 39°16' W 028°47'613.1
2015-Jun-23 19:05N 39°18' W 028°39'  
Track history (hours):
 
Tides and Currents Weather Stations Pressure Air Temp Water Temp Dewpoint Dewpoint Depression Visibility Wind Speed Wind Dir Waves Ship Positions

Cape Texel

Last reported at 2015-Jul-02 13:33 UTC. Time now 2015-Jul-03 12:25 UTC.
Position N 25°52' W 079°28'.

Length 228 m; draft 12 m.

Type: Ship (hazmat cat A). MMSI: 538090383.

Date/timePositionNaut miles runAvg speedWind from/ knotsBaromVisibWave heightAir tempDewpointWater temp
2015-Jul-02 13:33N 25°52' W 079°28'1010.4
2015-Jul-02 12:33N 26°02' W 079°25'  
2015-Jun-24 03:11N 38°45' W 030°48'813.0
2015-Jun-24 02:33N 38°48' W 030°38'1312.6
2015-Jun-24 01:34N 38°52' W 030°23'1313.2
2015-Jun-24 00:33N 38°55' W 030°06'1312.9
2015-Jun-23 23:34N 38°59' W 029°51'1313.2
2015-Jun-23 22:34N 39°04' W 029°35'1312.9
2015-Jun-23 21:33N 39°08' W 029°19'1313.0
2015-Jun-23 20:34N 39°12' W 029°03'1313.1
2015-Jun-23 19:34N 39°16' W 028°47'613.1
2015-Jun-23 19:05N 39°18' W 028°39'  

Dump ship's entire track history